Terminal Aerodrome Forecast
Issued by NWS

Home | Current Version | Previous Version | Text Only | Print | Product List | Glossary On
Versions: 1 2 3 4 5 6 7 8 9 10 11 12 13
351
FTUS45 KFGZ 270540
TAFGCN
TAF
KGCN 270540Z 2706/2806 VRB03KT P6SM SCT120 BKN250
     FM271900 22017G30KT P6SM -SHRA BKN060 BKN100
      TEMPO 2721/2801 -TSRA BKN045CB
     FM280300 29010KT 4SM SHRA BR BKN025=

USA.gov is the U.S. government's official web portal to all federal, state and local government web resources and services.